sensor_id;sensor_type;location;lat;lon;timestamp;P1;durP1;ratioP1;P2;durP2;ratioP2
13404;SDS011;6773;51.192;7.024;2023-02-01T00:01:53;22.73;;;11.33;;
13404;SDS011;6773;51.192;7.024;2023-02-01T00:04:19;15.93;;;10.73;;
13404;SDS011;6773;51.192;7.024;2023-02-01T00:06:45;23.33;;;11.73;;
13404;SDS011;6773;51.192;7.024;2023-02-01T00:09:11;19.93;;;11.60;;
13404;SDS011;6773;51.192;7.024;2023-02-01T00:11:37;20.90;;;12.30;;
13404;SDS011;6773;51.192;7.024;2023-02-01T00:14:03;22.43;;;12.10;;
13404;SDS011;6773;51.192;7.024;2023-02-01T00:16:29;20.87;;;11.13;;
13404;SDS011;6773;51.192;7.024;2023-02-01T00:18:57;24.93;;;12.00;;
13404;SDS011;6773;51.192;7.024;2023-02-01T00:21:28;23.57;;;12.97;;
13404;SDS011;6773;51.192;7.024;2023-02-01T00:23:54;25.03;;;10.93;;
13404;SDS011;6773;51.192;7.024;2023-02-01T00:26:42;24.43;;;13.43;;
13404;SDS011;6773;51.192;7.024;2023-02-01T00:29:09;21.70;;;13.37;;
13404;SDS011;6773;51.192;7.024;2023-02-01T00:31:37;29.10;;;13.03;;
13404;SDS011;6773;51.192;7.024;2023-02-01T00:34:03;29.13;;;13.40;;
13404;SDS011;6773;51.192;7.024;2023-02-01T00:36:29;24.17;;;13.67;;
13404;SDS011;6773;51.192;7.024;2023-02-01T00:38:55;29.63;;;13.17;;
13404;SDS011;6773;51.192;7.024;2023-02-01T00:41:21;20.80;;;12.90;;
13404;SDS011;6773;51.192;7.024;2023-02-01T00:43:47;24.80;;;12.73;;
13404;SDS011;6773;51.192;7.024;2023-02-01T00:46:14;24.13;;;12.70;;
13404;SDS011;6773;51.192;7.024;2023-02-01T00:48:41;24.23;;;12.93;;
13404;SDS011;6773;51.192;7.024;2023-02-01T00:51:08;17.70;;;11.43;;
13404;SDS011;6773;51.192;7.024;2023-02-01T00:53:35;27.10;;;11.83;;
13404;SDS011;6773;51.192;7.024;2023-02-01T00:56:02;22.33;;;10.77;;
13404;SDS011;6773;51.192;7.024;2023-02-01T00:58:28;19.73;;;10.50;;
13404;SDS011;6773;51.192;7.024;2023-02-01T01:03:34;22.33;;;11.80;;
13404;SDS011;6773;51.192;7.024;2023-02-01T01:06:07;19.87;;;10.20;;
13404;SDS011;6773;51.192;7.024;2023-02-01T01:08:40;24.03;;;9.47;;
13404;SDS011;6773;51.192;7.024;2023-02-01T01:11:07;15.73;;;9.27;;
13404;SDS011;6773;51.192;7.024;2023-02-01T01:13:35;29.20;;;10.57;;
13404;SDS011;6773;51.192;7.024;2023-02-01T01:16:01;18.47;;;8.83;;
13404;SDS011;6773;51.192;7.024;2023-02-01T01:18:29;21.60;;;10.07;;
13404;SDS011;6773;51.192;7.024;2023-02-01T01:20:55;22.87;;;8.40;;
13404;SDS011;6773;51.192;7.024;2023-02-01T01:23:21;19.07;;;8.30;;
13404;SDS011;6773;51.192;7.024;2023-02-01T01:25:47;21.80;;;9.00;;
13404;SDS011;6773;51.192;7.024;2023-02-01T01:28:13;21.60;;;7.87;;
13404;SDS011;6773;51.192;7.024;2023-02-01T01:30:38;16.10;;;7.10;;
13404;SDS011;6773;51.192;7.024;2023-02-01T01:33:04;22.73;;;7.10;;
13404;SDS011;6773;51.192;7.024;2023-02-01T01:35:30;14.33;;;7.13;;
13404;SDS011;6773;51.192;7.024;2023-02-01T01:37:57;14.63;;;7.00;;
13404;SDS011;6773;51.192;7.024;2023-02-01T01:40:24;15.87;;;6.10;;
13404;SDS011;6773;51.192;7.024;2023-02-01T01:42:50;15.40;;;6.50;;
13404;SDS011;6773;51.192;7.024;2023-02-01T01:45:29;11.53;;;6.50;;
13404;SDS011;6773;51.192;7.024;2023-02-01T01:48:01;26.37;;;5.83;;
13404;SDS011;6773;51.192;7.024;2023-02-01T01:50:33;14.67;;;5.07;;
13404;SDS011;6773;51.192;7.024;2023-02-01T01:53:44;16.67;;;5.93;;
13404;SDS011;6773;51.192;7.024;2023-02-01T01:56:14;12.50;;;5.17;;
13404;SDS011;6773;51.192;7.024;2023-02-01T01:58:40;12.90;;;4.30;;
13404;SDS011;6773;51.192;7.024;2023-02-01T02:01:06;10.37;;;4.97;;
13404;SDS011;6773;51.192;7.024;2023-02-01T02:03:37;13.53;;;4.33;;
13404;SDS011;6773;51.192;7.024;2023-02-01T02:06:11;8.07;;;4.20;;
13404;SDS011;6773;51.192;7.024;2023-02-01T02:08:56;11.10;;;4.43;;
13404;SDS011;6773;51.192;7.024;2023-02-01T02:11:22;8.57;;;3.77;;
13404;SDS011;6773;51.192;7.024;2023-02-01T02:13:51;17.17;;;4.33;;
13404;SDS011;6773;51.192;7.024;2023-02-01T02:35:57;13.83;;;3.63;;
13404;SDS011;6773;51.192;7.024;2023-02-01T02:38:41;12.77;;;4.30;;
13404;SDS011;6773;51.192;7.024;2023-02-01T02:41:16;10.70;;;3.17;;
13404;SDS011;6773;51.192;7.024;2023-02-01T02:44:13;10.63;;;4.13;;
13404;SDS011;6773;51.192;7.024;2023-02-01T02:47:10;10.80;;;3.93;;
13404;SDS011;6773;51.192;7.024;2023-02-01T02:49:59;10.50;;;3.00;;
13404;SDS011;6773;51.192;7.024;2023-02-01T02:52:56;10.60;;;3.53;;
13404;SDS011;6773;51.192;7.024;2023-02-01T02:55:45;8.20;;;3.60;;
13404;SDS011;6773;51.192;7.024;2023-02-01T02:58:12;16.13;;;3.43;;
13404;SDS011;6773;51.192;7.024;2023-02-01T03:00:58;9.07;;;3.83;;
13404;SDS011;6773;51.192;7.024;2023-02-01T03:03:43;11.57;;;3.27;;
13404;SDS011;6773;51.192;7.024;2023-02-01T03:06:47;12.07;;;3.87;;
13404;SDS011;6773;51.192;7.024;2023-02-01T03:09:13;16.63;;;4.50;;
13404;SDS011;6773;51.192;7.024;2023-02-01T03:11:46;9.60;;;3.67;;
13404;SDS011;6773;51.192;7.024;2023-02-01T03:14:33;12.57;;;4.00;;
13404;SDS011;6773;51.192;7.024;2023-02-01T03:17:03;12.03;;;4.63;;
13404;SDS011;6773;51.192;7.024;2023-02-01T03:19:39;11.17;;;3.53;;
13404;SDS011;6773;51.192;7.024;2023-02-01T03:22:14;9.37;;;3.53;;
13404;SDS011;6773;51.192;7.024;2023-02-01T03:29:56;11.20;;;4.10;;
13404;SDS011;6773;51.192;7.024;2023-02-01T03:32:25;13.07;;;3.93;;
13404;SDS011;6773;51.192;7.024;2023-02-01T03:34:50;12.00;;;3.90;;
13404;SDS011;6773;51.192;7.024;2023-02-01T03:37:25;10.90;;;3.23;;
13404;SDS011;6773;51.192;7.024;2023-02-01T03:42:24;17.73;;;3.83;;
13404;SDS011;6773;51.192;7.024;2023-02-01T03:47:58;12.23;;;4.13;;
13404;SDS011;6773;51.192;7.024;2023-02-01T03:50:26;11.50;;;3.47;;
13404;SDS011;6773;51.192;7.024;2023-02-01T03:52:56;11.83;;;3.53;;
13404;SDS011;6773;51.192;7.024;2023-02-01T03:55:27;12.80;;;3.83;;
13404;SDS011;6773;51.192;7.024;2023-02-01T03:58:11;14.00;;;3.77;;
13404;SDS011;6773;51.192;7.024;2023-02-01T04:00:39;10.47;;;4.40;;
13404;SDS011;6773;51.192;7.024;2023-02-01T04:03:05;17.43;;;4.63;;
13404;SDS011;6773;51.192;7.024;2023-02-01T04:05:32;9.37;;;3.50;;
13404;SDS011;6773;51.192;7.024;2023-02-01T04:07:58;11.17;;;3.83;;
13404;SDS011;6773;51.192;7.024;2023-02-01T04:10:24;10.80;;;3.30;;
13404;SDS011;6773;51.192;7.024;2023-02-01T04:12:50;12.37;;;4.53;;
13404;SDS011;6773;51.192;7.024;2023-02-01T04:15:16;8.27;;;3.23;;
13404;SDS011;6773;51.192;7.024;2023-02-01T04:17:42;16.10;;;3.83;;
13404;SDS011;6773;51.192;7.024;2023-02-01T04:20:08;7.73;;;3.50;;
13404;SDS011;6773;51.192;7.024;2023-02-01T04:22:35;13.97;;;4.60;;
13404;SDS011;6773;51.192;7.024;2023-02-01T04:25:02;16.10;;;3.60;;
13404;SDS011;6773;51.192;7.024;2023-02-01T04:27:30;12.27;;;3.83;;
13404;SDS011;6773;51.192;7.024;2023-02-01T04:29:56;11.63;;;3.07;;
13404;SDS011;6773;51.192;7.024;2023-02-01T04:32:22;14.67;;;4.23;;
13404;SDS011;6773;51.192;7.024;2023-02-01T04:34:48;15.00;;;4.03;;
13404;SDS011;6773;51.192;7.024;2023-02-01T04:37:13;15.97;;;3.57;;
13404;SDS011;6773;51.192;7.024;2023-02-01T04:39:39;11.00;;;3.70;;
13404;SDS011;6773;51.192;7.024;2023-02-01T04:42:05;12.63;;;3.70;;
13404;SDS011;6773;51.192;7.024;2023-02-01T04:44:31;17.77;;;3.90;;
13404;SDS011;6773;51.192;7.024;2023-02-01T04:46:57;13.27;;;3.50;;
13404;SDS011;6773;51.192;7.024;2023-02-01T04:49:23;11.17;;;3.67;;
13404;SDS011;6773;51.192;7.024;2023-02-01T04:51:51;12.10;;;3.50;;
13404;SDS011;6773;51.192;7.024;2023-02-01T04:54:16;8.73;;;3.73;;
13404;SDS011;6773;51.192;7.024;2023-02-01T04:56:42;13.90;;;5.00;;
13404;SDS011;6773;51.192;7.024;2023-02-01T04:59:10;11.97;;;3.50;;
13404;SDS011;6773;51.192;7.024;2023-02-01T05:01:36;10.10;;;3.67;;
13404;SDS011;6773;51.192;7.024;2023-02-01T05:04:02;12.97;;;4.00;;
13404;SDS011;6773;51.192;7.024;2023-02-01T05:06:28;13.67;;;3.50;;
13404;SDS011;6773;51.192;7.024;2023-02-01T05:08:54;14.37;;;3.50;;
13404;SDS011;6773;51.192;7.024;2023-02-01T05:11:20;7.50;;;3.37;;
13404;SDS011;6773;51.192;7.024;2023-02-01T05:14:04;8.30;;;2.90;;
13404;SDS011;6773;51.192;7.024;2023-02-01T05:16:30;8.70;;;3.07;;
13404;SDS011;6773;51.192;7.024;2023-02-01T05:18:56;15.13;;;4.03;;
13404;SDS011;6773;51.192;7.024;2023-02-01T05:21:22;8.10;;;3.23;;
13404;SDS011;6773;51.192;7.024;2023-02-01T05:23:48;11.50;;;3.43;;
13404;SDS011;6773;51.192;7.024;2023-02-01T05:26:32;13.57;;;3.87;;
13404;SDS011;6773;51.192;7.024;2023-02-01T05:28:58;9.53;;;3.67;;
13404;SDS011;6773;51.192;7.024;2023-02-01T05:31:24;11.33;;;4.00;;
13404;SDS011;6773;51.192;7.024;2023-02-01T05:33:50;8.33;;;3.30;;
13404;SDS011;6773;51.192;7.024;2023-02-01T05:36:16;18.50;;;3.60;;
13404;SDS011;6773;51.192;7.024;2023-02-01T05:38:42;8.77;;;2.87;;
13404;SDS011;6773;51.192;7.024;2023-02-01T05:41:08;12.23;;;3.60;;
13404;SDS011;6773;51.192;7.024;2023-02-01T05:43:34;11.53;;;3.53;;
13404;SDS011;6773;51.192;7.024;2023-02-01T05:45:59;13.30;;;3.67;;
13404;SDS011;6773;51.192;7.024;2023-02-01T05:48:25;9.00;;;3.50;;
13404;SDS011;6773;51.192;7.024;2023-02-01T05:50:51;14.40;;;3.63;;
13404;SDS011;6773;51.192;7.024;2023-02-01T05:53:16;12.57;;;3.90;;
13404;SDS011;6773;51.192;7.024;2023-02-01T05:55:42;11.30;;;3.83;;
13404;SDS011;6773;51.192;7.024;2023-02-01T05:58:08;15.27;;;4.03;;
13404;SDS011;6773;51.192;7.024;2023-02-01T06:00:33;12.90;;;3.87;;
13404;SDS011;6773;51.192;7.024;2023-02-01T06:02:59;7.50;;;3.50;;
13404;SDS011;6773;51.192;7.024;2023-02-01T06:05:25;8.60;;;3.43;;
13404;SDS011;6773;51.192;7.024;2023-02-01T06:07:51;12.70;;;3.57;;
13404;SDS011;6773;51.192;7.024;2023-02-01T06:10:17;6.57;;;2.93;;
13404;SDS011;6773;51.192;7.024;2023-02-01T06:12:43;16.77;;;4.30;;
13404;SDS011;6773;51.192;7.024;2023-02-01T06:15:09;13.47;;;3.87;;
13404;SDS011;6773;51.192;7.024;2023-02-01T06:17:40;10.93;;;5.00;;
13404;SDS011;6773;51.192;7.024;2023-02-01T06:20:08;15.20;;;4.33;;
13404;SDS011;6773;51.192;7.024;2023-02-01T06:22:34;18.30;;;4.37;;
13404;SDS011;6773;51.192;7.024;2023-02-01T06:25:01;13.43;;;4.67;;
13404;SDS011;6773;51.192;7.024;2023-02-01T06:27:27;13.17;;;3.40;;
13404;SDS011;6773;51.192;7.024;2023-02-01T06:29:53;10.23;;;3.13;;
13404;SDS011;6773;51.192;7.024;2023-02-01T06:32:20;15.40;;;4.77;;
13404;SDS011;6773;51.192;7.024;2023-02-01T06:34:46;15.63;;;4.30;;
13404;SDS011;6773;51.192;7.024;2023-02-01T06:37:11;15.97;;;4.73;;
13404;SDS011;6773;51.192;7.024;2023-02-01T06:39:37;17.77;;;4.20;;
13404;SDS011;6773;51.192;7.024;2023-02-01T06:42:03;19.10;;;4.03;;
13404;SDS011;6773;51.192;7.024;2023-02-01T06:44:29;15.87;;;3.40;;
13404;SDS011;6773;51.192;7.024;2023-02-01T06:46:54;14.37;;;3.83;;
13404;SDS011;6773;51.192;7.024;2023-02-01T06:49:20;7.27;;;2.97;;
13404;SDS011;6773;51.192;7.024;2023-02-01T06:51:46;16.20;;;3.93;;
13404;SDS011;6773;51.192;7.024;2023-02-01T06:54:12;12.83;;;3.20;;
13404;SDS011;6773;51.192;7.024;2023-02-01T06:56:38;15.30;;;4.13;;
13404;SDS011;6773;51.192;7.024;2023-02-01T06:59:05;12.73;;;3.67;;
13404;SDS011;6773;51.192;7.024;2023-02-01T07:01:31;18.07;;;4.40;;
13404;SDS011;6773;51.192;7.024;2023-02-01T07:03:57;11.30;;;3.87;;
13404;SDS011;6773;51.192;7.024;2023-02-01T07:06:22;10.00;;;3.53;;
13404;SDS011;6773;51.192;7.024;2023-02-01T07:08:48;13.27;;;3.53;;
13404;SDS011;6773;51.192;7.024;2023-02-01T07:11:14;14.50;;;4.53;;
13404;SDS011;6773;51.192;7.024;2023-02-01T07:13:40;14.37;;;3.63;;
13404;SDS011;6773;51.192;7.024;2023-02-01T07:16:08;12.33;;;3.70;;
13404;SDS011;6773;51.192;7.024;2023-02-01T07:18:38;13.30;;;4.43;;
13404;SDS011;6773;51.192;7.024;2023-02-01T07:21:04;14.37;;;4.37;;
13404;SDS011;6773;51.192;7.024;2023-02-01T07:23:30;14.07;;;3.30;;
13404;SDS011;6773;51.192;7.024;2023-02-01T07:25:57;12.43;;;3.33;;
13404;SDS011;6773;51.192;7.024;2023-02-01T07:28:24;14.67;;;3.70;;
13404;SDS011;6773;51.192;7.024;2023-02-01T07:30:50;16.50;;;3.50;;
13404;SDS011;6773;51.192;7.024;2023-02-01T07:33:19;12.77;;;3.77;;
13404;SDS011;6773;51.192;7.024;2023-02-01T07:35:47;14.17;;;3.90;;
13404;SDS011;6773;51.192;7.024;2023-02-01T07:38:13;11.97;;;3.40;;
13404;SDS011;6773;51.192;7.024;2023-02-01T07:40:39;16.57;;;4.00;;
13404;SDS011;6773;51.192;7.024;2023-02-01T07:43:05;15.80;;;3.97;;
13404;SDS011;6773;51.192;7.024;2023-02-01T07:45:36;13.10;;;4.43;;
13404;SDS011;6773;51.192;7.024;2023-02-01T07:48:02;12.50;;;4.03;;
13404;SDS011;6773;51.192;7.024;2023-02-01T07:50:28;7.90;;;3.63;;
13404;SDS011;6773;51.192;7.024;2023-02-01T07:52:54;12.77;;;3.50;;
13404;SDS011;6773;51.192;7.024;2023-02-01T07:55:20;16.43;;;3.50;;
13404;SDS011;6773;51.192;7.024;2023-02-01T07:57:46;15.20;;;3.80;;
13404;SDS011;6773;51.192;7.024;2023-02-01T08:00:12;12.53;;;4.47;;
13404;SDS011;6773;51.192;7.024;2023-02-01T08:02:59;16.10;;;3.73;;
13404;SDS011;6773;51.192;7.024;2023-02-01T08:05:25;11.90;;;4.13;;
13404;SDS011;6773;51.192;7.024;2023-02-01T08:07:51;18.03;;;4.07;;
13404;SDS011;6773;51.192;7.024;2023-02-01T08:10:17;8.97;;;3.00;;
13404;SDS011;6773;51.192;7.024;2023-02-01T08:12:43;11.30;;;3.93;;
13404;SDS011;6773;51.192;7.024;2023-02-01T08:15:13;9.30;;;3.30;;
13404;SDS011;6773;51.192;7.024;2023-02-01T08:17:40;14.90;;;4.13;;
13404;SDS011;6773;51.192;7.024;2023-02-01T08:20:06;14.50;;;4.17;;
13404;SDS011;6773;51.192;7.024;2023-02-01T08:22:32;14.20;;;4.30;;
13404;SDS011;6773;51.192;7.024;2023-02-01T08:24:57;16.73;;;4.83;;
13404;SDS011;6773;51.192;7.024;2023-02-01T08:27:26;10.40;;;3.87;;
13404;SDS011;6773;51.192;7.024;2023-02-01T08:29:52;14.77;;;3.77;;
13404;SDS011;6773;51.192;7.024;2023-02-01T08:32:19;7.60;;;3.23;;
13404;SDS011;6773;51.192;7.024;2023-02-01T08:34:44;13.57;;;3.57;;
13404;SDS011;6773;51.192;7.024;2023-02-01T08:37:10;12.77;;;4.47;;
13404;SDS011;6773;51.192;7.024;2023-02-01T08:39:36;15.07;;;4.70;;
13404;SDS011;6773;51.192;7.024;2023-02-01T08:42:01;12.77;;;3.97;;
13404;SDS011;6773;51.192;7.024;2023-02-01T08:44:46;22.23;;;5.93;;
13404;SDS011;6773;51.192;7.024;2023-02-01T08:47:12;15.33;;;4.53;;
13404;SDS011;6773;51.192;7.024;2023-02-01T08:49:37;16.30;;;4.03;;
13404;SDS011;6773;51.192;7.024;2023-02-01T08:52:03;13.10;;;4.40;;
13404;SDS011;6773;51.192;7.024;2023-02-01T08:54:29;24.73;;;5.00;;
13404;SDS011;6773;51.192;7.024;2023-02-01T08:56:55;15.60;;;4.33;;
13404;SDS011;6773;51.192;7.024;2023-02-01T08:59:21;15.60;;;4.57;;
13404;SDS011;6773;51.192;7.024;2023-02-01T09:01:46;12.87;;;4.00;;
13404;SDS011;6773;51.192;7.024;2023-02-01T09:04:12;16.60;;;4.10;;
13404;SDS011;6773;51.192;7.024;2023-02-01T09:06:39;10.90;;;4.37;;
13404;SDS011;6773;51.192;7.024;2023-02-01T09:09:06;12.23;;;4.27;;
13404;SDS011;6773;51.192;7.024;2023-02-01T09:11:31;16.23;;;4.77;;
13404;SDS011;6773;51.192;7.024;2023-02-01T09:13:57;13.60;;;4.40;;
13404;SDS011;6773;51.192;7.024;2023-02-01T09:16:23;15.47;;;4.87;;
13404;SDS011;6773;51.192;7.024;2023-02-01T09:18:49;14.20;;;3.57;;
13404;SDS011;6773;51.192;7.024;2023-02-01T09:21:14;12.00;;;4.37;;
13404;SDS011;6773;51.192;7.024;2023-02-01T09:23:40;17.53;;;4.77;;
13404;SDS011;6773;51.192;7.024;2023-02-01T09:26:06;24.13;;;5.40;;
13404;SDS011;6773;51.192;7.024;2023-02-01T09:28:32;9.87;;;4.27;;
13404;SDS011;6773;51.192;7.024;2023-02-01T09:30:58;14.73;;;4.50;;
13404;SDS011;6773;51.192;7.024;2023-02-01T09:33:25;24.13;;;4.90;;
13404;SDS011;6773;51.192;7.024;2023-02-01T09:35:59;13.37;;;4.23;;
13404;SDS011;6773;51.192;7.024;2023-02-01T09:38:26;15.40;;;4.17;;
13404;SDS011;6773;51.192;7.024;2023-02-01T09:40:52;14.07;;;5.77;;
13404;SDS011;6773;51.192;7.024;2023-02-01T09:48:47;14.33;;;3.93;;
13404;SDS011;6773;51.192;7.024;2023-02-01T09:51:20;13.37;;;4.30;;
13404;SDS011;6773;51.192;7.024;2023-02-01T09:54:13;13.17;;;4.77;;
13404;SDS011;6773;51.192;7.024;2023-02-01T09:56:46;20.53;;;4.50;;
13404;SDS011;6773;51.192;7.024;2023-02-01T10:02:17;15.30;;;4.60;;
13404;SDS011;6773;51.192;7.024;2023-02-01T10:04:52;11.07;;;3.93;;
13404;SDS011;6773;51.192;7.024;2023-02-01T10:07:23;14.27;;;4.10;;
13404;SDS011;6773;51.192;7.024;2023-02-01T10:15:57;14.17;;;4.60;;
13404;SDS011;6773;51.192;7.024;2023-02-01T10:24:45;17.73;;;4.50;;
13404;SDS011;6773;51.192;7.024;2023-02-01T10:27:19;13.23;;;4.10;;
13404;SDS011;6773;51.192;7.024;2023-02-01T10:29:59;12.83;;;3.80;;
13404;SDS011;6773;51.192;7.024;2023-02-01T10:32:32;11.23;;;3.83;;
13404;SDS011;6773;51.192;7.024;2023-02-01T10:35:08;15.37;;;4.17;;
13404;SDS011;6773;51.192;7.024;2023-02-01T10:37:40;13.70;;;4.80;;
13404;SDS011;6773;51.192;7.024;2023-02-01T10:42:44;9.93;;;3.70;;
13404;SDS011;6773;51.192;7.024;2023-02-01T10:45:13;13.40;;;3.00;;
13404;SDS011;6773;51.192;7.024;2023-02-01T10:47:42;12.93;;;5.07;;
13404;SDS011;6773;51.192;7.024;2023-02-01T10:50:19;15.70;;;4.90;;
13404;SDS011;6773;51.192;7.024;2023-02-01T10:53:11;12.80;;;4.33;;
13404;SDS011;6773;51.192;7.024;2023-02-01T10:58:16;12.37;;;4.80;;
13404;SDS011;6773;51.192;7.024;2023-02-01T11:00:57;9.07;;;4.10;;
13404;SDS011;6773;51.192;7.024;2023-02-01T11:03:38;10.13;;;4.30;;
13404;SDS011;6773;51.192;7.024;2023-02-01T11:08:50;17.63;;;4.60;;
13404;SDS011;6773;51.192;7.024;2023-02-01T11:11:21;12.90;;;4.60;;
13404;SDS011;6773;51.192;7.024;2023-02-01T11:13:51;15.90;;;4.50;;
13404;SDS011;6773;51.192;7.024;2023-02-01T11:16:18;10.73;;;3.60;;
13404;SDS011;6773;51.192;7.024;2023-02-01T11:18:44;10.17;;;4.20;;
13404;SDS011;6773;51.192;7.024;2023-02-01T11:21:10;12.77;;;4.27;;
13404;SDS011;6773;51.192;7.024;2023-02-01T11:23:40;12.27;;;4.13;;
13404;SDS011;6773;51.192;7.024;2023-02-01T11:26:20;17.87;;;4.43;;
13404;SDS011;6773;51.192;7.024;2023-02-01T11:28:54;8.47;;;4.20;;
13404;SDS011;6773;51.192;7.024;2023-02-01T11:31:24;12.63;;;4.50;;
13404;SDS011;6773;51.192;7.024;2023-02-01T11:33:52;20.23;;;4.57;;
13404;SDS011;6773;51.192;7.024;2023-02-01T11:36:26;14.73;;;4.40;;
13404;SDS011;6773;51.192;7.024;2023-02-01T11:39:17;8.97;;;3.83;;
13404;SDS011;6773;51.192;7.024;2023-02-01T11:44:33;14.27;;;4.30;;
13404;SDS011;6773;51.192;7.024;2023-02-01T11:49:47;11.00;;;3.20;;
13404;SDS011;6773;51.192;7.024;2023-02-01T11:57:43;10.00;;;3.53;;
13404;SDS011;6773;51.192;7.024;2023-02-01T12:02:59;10.33;;;4.07;;
13404;SDS011;6773;51.192;7.024;2023-02-01T12:05:47;13.57;;;4.70;;
13404;SDS011;6773;51.192;7.024;2023-02-01T12:08:27;16.33;;;4.30;;
13404;SDS011;6773;51.192;7.024;2023-02-01T12:22:48;17.80;;;4.80;;
13404;SDS011;6773;51.192;7.024;2023-02-01T12:30:58;11.10;;;3.57;;
13404;SDS011;6773;51.192;7.024;2023-02-01T12:37:11;11.57;;;3.50;;
13404;SDS011;6773;51.192;7.024;2023-02-01T12:39:20;10.20;;;3.23;;
13404;SDS011;6773;51.192;7.024;2023-02-01T12:44:56;10.00;;;3.80;;
13404;SDS011;6773;51.192;7.024;2023-02-01T12:48:30;10.10;;;3.27;;
13404;SDS011;6773;51.192;7.024;2023-02-01T12:50:28;7.37;;;3.33;;
13404;SDS011;6773;51.192;7.024;2023-02-01T12:56:00;19.87;;;6.43;;
13404;SDS011;6773;51.192;7.024;2023-02-01T13:01:06;11.70;;;3.70;;
13404;SDS011;6773;51.192;7.024;2023-02-01T13:12:35;13.30;;;3.90;;
13404;SDS011;6773;51.192;7.024;2023-02-01T13:15:20;12.40;;;3.93;;
13404;SDS011;6773;51.192;7.024;2023-02-01T13:17:47;9.73;;;3.87;;
13404;SDS011;6773;51.192;7.024;2023-02-01T13:20:27;6.80;;;3.07;;
13404;SDS011;6773;51.192;7.024;2023-02-01T13:23:00;11.50;;;4.00;;
13404;SDS011;6773;51.192;7.024;2023-02-01T13:25:41;8.77;;;3.70;;
13404;SDS011;6773;51.192;7.024;2023-02-01T13:31:07;10.63;;;3.37;;
13404;SDS011;6773;51.192;7.024;2023-02-01T13:33:40;10.80;;;3.47;;
13404;SDS011;6773;51.192;7.024;2023-02-01T13:42:27;10.40;;;3.27;;
13404;SDS011;6773;51.192;7.024;2023-02-01T13:45:04;8.90;;;3.10;;
13404;SDS011;6773;51.192;7.024;2023-02-01T13:47:39;9.47;;;3.27;;
13404;SDS011;6773;51.192;7.024;2023-02-01T13:50:19;8.53;;;2.77;;
13404;SDS011;6773;51.192;7.024;2023-02-01T13:52:51;4.60;;;2.37;;
13404;SDS011;6773;51.192;7.024;2023-02-01T13:57:46;6.80;;;2.80;;
13404;SDS011;6773;51.192;7.024;2023-02-01T14:00:33;6.90;;;3.20;;
13404;SDS011;6773;51.192;7.024;2023-02-01T14:13:31;6.57;;;3.17;;
13404;SDS011;6773;51.192;7.024;2023-02-01T14:21:46;12.20;;;3.17;;
13404;SDS011;6773;51.192;7.024;2023-02-01T14:24:02;8.47;;;2.90;;
13404;SDS011;6773;51.192;7.024;2023-02-01T14:26:44;7.63;;;2.87;;
13404;SDS011;6773;51.192;7.024;2023-02-01T14:31:41;9.23;;;2.60;;
13404;SDS011;6773;51.192;7.024;2023-02-01T14:34:18;11.17;;;3.13;;
13404;SDS011;6773;51.192;7.024;2023-02-01T14:37:09;13.90;;;3.40;;
13404;SDS011;6773;51.192;7.024;2023-02-01T14:44:43;9.17;;;4.10;;
13404;SDS011;6773;51.192;7.024;2023-02-01T14:49:42;8.33;;;3.10;;
13404;SDS011;6773;51.192;7.024;2023-02-01T14:52:23;8.07;;;2.43;;
13404;SDS011;6773;51.192;7.024;2023-02-01T14:54:59;6.03;;;2.00;;
13404;SDS011;6773;51.192;7.024;2023-02-01T14:57:31;12.33;;;2.97;;
13404;SDS011;6773;51.192;7.024;2023-02-01T15:00:43;10.60;;;2.80;;
13404;SDS011;6773;51.192;7.024;2023-02-01T15:02:52;7.43;;;2.53;;
13404;SDS011;6773;51.192;7.024;2023-02-01T15:05:25;5.40;;;2.77;;
13404;SDS011;6773;51.192;7.024;2023-02-01T15:07:51;6.20;;;3.17;;
13404;SDS011;6773;51.192;7.024;2023-02-01T15:10:17;10.27;;;2.60;;
13404;SDS011;6773;51.192;7.024;2023-02-01T15:12:45;9.87;;;2.70;;
13404;SDS011;6773;51.192;7.024;2023-02-01T15:17:56;9.03;;;2.73;;
13404;SDS011;6773;51.192;7.024;2023-02-01T15:20:29;6.00;;;2.57;;
13404;SDS011;6773;51.192;7.024;2023-02-01T15:23:00;9.37;;;3.10;;
13404;SDS011;6773;51.192;7.024;2023-02-01T15:25:31;6.20;;;3.33;;
13404;SDS011;6773;51.192;7.024;2023-02-01T15:28:00;5.90;;;2.23;;
13404;SDS011;6773;51.192;7.024;2023-02-01T15:30:29;16.80;;;3.10;;
13404;SDS011;6773;51.192;7.024;2023-02-01T15:35:53;8.17;;;2.43;;
13404;SDS011;6773;51.192;7.024;2023-02-01T15:41:09;11.03;;;3.13;;
13404;SDS011;6773;51.192;7.024;2023-02-01T15:44:02;9.10;;;2.50;;
13404;SDS011;6773;51.192;7.024;2023-02-01T15:46:38;9.40;;;2.60;;
13404;SDS011;6773;51.192;7.024;2023-02-01T15:49:15;9.87;;;2.80;;
13404;SDS011;6773;51.192;7.024;2023-02-01T15:51:43;10.73;;;3.47;;
13404;SDS011;6773;51.192;7.024;2023-02-01T15:54:18;7.80;;;2.93;;
13404;SDS011;6773;51.192;7.024;2023-02-01T15:56:49;6.90;;;3.10;;
13404;SDS011;6773;51.192;7.024;2023-02-01T15:59:19;7.07;;;2.57;;
13404;SDS011;6773;51.192;7.024;2023-02-01T16:01:46;6.63;;;2.10;;
13404;SDS011;6773;51.192;7.024;2023-02-01T16:04:17;9.93;;;2.90;;
13404;SDS011;6773;51.192;7.024;2023-02-01T16:06:51;10.87;;;3.00;;
13404;SDS011;6773;51.192;7.024;2023-02-01T16:09:20;19.03;;;3.20;;
13404;SDS011;6773;51.192;7.024;2023-02-01T16:11:59;13.30;;;3.70;;
13404;SDS011;6773;51.192;7.024;2023-02-01T16:14:26;10.03;;;3.83;;
13404;SDS011;6773;51.192;7.024;2023-02-01T16:16:53;13.03;;;3.73;;
13404;SDS011;6773;51.192;7.024;2023-02-01T16:19:20;14.30;;;2.67;;
13404;SDS011;6773;51.192;7.024;2023-02-01T16:21:49;10.63;;;2.70;;
13404;SDS011;6773;51.192;7.024;2023-02-01T16:24:14;10.03;;;3.37;;
13404;SDS011;6773;51.192;7.024;2023-02-01T16:26:40;18.87;;;3.40;;
13404;SDS011;6773;51.192;7.024;2023-02-01T16:29:05;17.10;;;3.70;;
13404;SDS011;6773;51.192;7.024;2023-02-01T16:31:34;7.07;;;2.87;;
13404;SDS011;6773;51.192;7.024;2023-02-01T16:34:01;5.47;;;2.47;;
13404;SDS011;6773;51.192;7.024;2023-02-01T16:36:27;13.67;;;3.97;;
13404;SDS011;6773;51.192;7.024;2023-02-01T16:38:53;8.80;;;3.10;;
13404;SDS011;6773;51.192;7.024;2023-02-01T16:41:21;11.17;;;3.80;;
13404;SDS011;6773;51.192;7.024;2023-02-01T16:43:51;16.50;;;3.37;;
13404;SDS011;6773;51.192;7.024;2023-02-01T16:46:19;9.07;;;2.70;;
13404;SDS011;6773;51.192;7.024;2023-02-01T16:49:00;12.03;;;3.17;;
13404;SDS011;6773;51.192;7.024;2023-02-01T16:51:30;7.33;;;3.20;;
13404;SDS011;6773;51.192;7.024;2023-02-01T16:53:57;9.33;;;3.47;;
13404;SDS011;6773;51.192;7.024;2023-02-01T16:56:31;8.37;;;2.70;;
13404;SDS011;6773;51.192;7.024;2023-02-01T16:58:58;6.93;;;3.03;;
13404;SDS011;6773;51.192;7.024;2023-02-01T17:01:24;6.60;;;2.80;;
13404;SDS011;6773;51.192;7.024;2023-02-01T17:03:50;9.50;;;3.57;;
13404;SDS011;6773;51.192;7.024;2023-02-01T17:06:18;13.20;;;3.57;;
13404;SDS011;6773;51.192;7.024;2023-02-01T17:08:51;11.13;;;3.33;;
13404;SDS011;6773;51.192;7.024;2023-02-01T17:11:23;15.00;;;3.67;;
13404;SDS011;6773;51.192;7.024;2023-02-01T17:13:49;10.33;;;3.40;;
13404;SDS011;6773;51.192;7.024;2023-02-01T17:16:19;7.27;;;3.07;;
13404;SDS011;6773;51.192;7.024;2023-02-01T17:18:54;11.10;;;3.40;;
13404;SDS011;6773;51.192;7.024;2023-02-01T17:21:34;7.50;;;3.07;;
13404;SDS011;6773;51.192;7.024;2023-02-01T17:24:16;12.43;;;3.27;;
13404;SDS011;6773;51.192;7.024;2023-02-01T17:26:44;10.40;;;3.03;;
13404;SDS011;6773;51.192;7.024;2023-02-01T17:29:10;8.67;;;2.67;;
13404;SDS011;6773;51.192;7.024;2023-02-01T17:31:38;10.23;;;3.47;;
13404;SDS011;6773;51.192;7.024;2023-02-01T17:34:06;9.53;;;3.13;;
13404;SDS011;6773;51.192;7.024;2023-02-01T17:36:32;9.07;;;3.23;;
13404;SDS011;6773;51.192;7.024;2023-02-01T17:38:59;12.20;;;2.77;;
13404;SDS011;6773;51.192;7.024;2023-02-01T17:41:25;10.97;;;3.40;;
13404;SDS011;6773;51.192;7.024;2023-02-01T17:43:51;10.23;;;3.43;;
13404;SDS011;6773;51.192;7.024;2023-02-01T17:46:17;14.07;;;4.07;;
13404;SDS011;6773;51.192;7.024;2023-02-01T17:48:50;13.67;;;2.90;;